createdAt,value
2023-02-21T00:01:00.832Z,10.27
2023-02-21T00:03:46.384Z,5.30
2023-02-21T00:06:33.255Z,6.87
2023-02-21T00:09:18.649Z,6.43
2023-02-21T00:12:04.550Z,7.60
2023-02-21T00:14:50.137Z,19.50
2023-02-21T00:17:35.614Z,5.93
2023-02-21T00:20:21.116Z,23.33
2023-02-21T00:23:07.867Z,13.90
2023-02-21T00:25:53.451Z,10.70
2023-02-21T00:28:38.835Z,14.10
2023-02-21T00:31:24.842Z,9.60
2023-02-21T00:34:10.872Z,13.73
2023-02-21T00:36:56.389Z,7.90
2023-02-21T00:39:43.341Z,7.40
2023-02-21T00:42:28.763Z,5.27
2023-02-21T00:45:14.380Z,9.53
2023-02-21T00:48:00.073Z,10.43
2023-02-21T00:50:45.402Z,6.37
2023-02-21T00:53:30.935Z,14.90
2023-02-21T00:56:17.747Z,15.70
2023-02-21T00:59:03.250Z,18.73
2023-02-21T01:01:48.824Z,11.20
2023-02-21T01:04:34.304Z,8.17
2023-02-21T01:07:19.890Z,8.63
2023-02-21T01:10:05.307Z,7.23
2023-02-21T01:12:52.051Z,10.50
2023-02-21T01:15:37.576Z,6.27
2023-02-21T01:18:23.020Z,11.37
2023-02-21T01:21:08.591Z,8.87
2023-02-21T01:23:54.116Z,8.20
2023-02-21T01:26:39.513Z,12.20
2023-02-21T01:29:26.321Z,10.90
2023-02-21T01:32:11.793Z,4.13
2023-02-21T01:34:57.259Z,13.43
2023-02-21T01:37:42.737Z,8.77
2023-02-21T01:40:33.179Z,8.13
2023-02-21T01:43:18.644Z,8.33
2023-02-21T01:46:10.398Z,12.63
2023-02-21T01:48:56.373Z,7.83
2023-02-21T01:51:47.039Z,11.40
2023-02-21T01:54:32.437Z,8.73
2023-02-21T01:57:19.625Z,7.90
2023-02-21T02:00:06.099Z,11.97
2023-02-21T02:03:01.878Z,9.30
2023-02-21T02:05:47.682Z,11.80
2023-02-21T02:08:35.028Z,9.20
2023-02-21T02:11:30.948Z,12.10
2023-02-21T02:14:18.548Z,11.97
2023-02-21T02:16:52.738Z,10.00
2023-02-21T02:20:10.977Z,10.63
2023-02-21T02:23:18.151Z,12.03
2023-02-21T02:26:12.443Z,22.30
2023-02-21T02:29:04.195Z,14.40
2023-02-21T02:32:10.443Z,5.27
2023-02-21T02:34:53.706Z,10.97
2023-02-21T02:37:30.379Z,11.00
2023-02-21T02:40:08.231Z,9.07
2023-02-21T02:42:48.424Z,13.43
2023-02-21T02:45:24.325Z,12.13
2023-02-21T02:47:56.584Z,13.20
2023-02-21T02:50:27.645Z,10.50
2023-02-21T02:52:57.714Z,10.60
2023-02-21T02:55:37.355Z,9.47
2023-02-21T02:58:06.526Z,20.13
2023-02-21T03:00:37.305Z,11.70
2023-02-21T03:03:23.232Z,18.73
2023-02-21T03:06:09.242Z,9.73
2023-02-21T03:08:47.042Z,15.20
2023-02-21T03:11:19.000Z,20.83
2023-02-21T03:13:50.858Z,23.57
2023-02-21T03:16:28.140Z,14.60
2023-02-21T03:19:02.418Z,12.70
2023-02-21T03:21:37.116Z,12.53
2023-02-21T03:24:07.201Z,12.13
2023-02-21T03:26:38.685Z,12.10
2023-02-21T03:29:09.887Z,9.03
2023-02-21T03:31:44.936Z,19.13
2023-02-21T03:34:13.115Z,11.37
2023-02-21T03:36:43.362Z,12.43
2023-02-21T03:39:11.391Z,14.93
2023-02-21T03:41:39.380Z,14.30
2023-02-21T03:44:07.353Z,21.40
2023-02-21T03:46:36.047Z,17.47
2023-02-21T03:49:04.073Z,9.80
2023-02-21T03:51:32.065Z,12.60
2023-02-21T03:54:01.450Z,14.10
2023-02-21T03:56:41.245Z,12.13
2023-02-21T03:59:10.294Z,13.40
2023-02-21T04:01:38.370Z,14.33
2023-02-21T04:04:06.424Z,13.53
2023-02-21T04:06:34.394Z,14.60
2023-02-21T04:09:03.872Z,15.03
2023-02-21T04:11:32.904Z,10.93
2023-02-21T04:14:00.938Z,13.03
2023-02-21T04:16:29.041Z,16.83
2023-02-21T04:18:57.157Z,22.47
2023-02-21T04:21:25.201Z,11.50
2023-02-21T04:23:53.155Z,9.33
2023-02-21T04:26:23.979Z,29.00
2023-02-21T04:28:53.893Z,18.30
2023-02-21T04:31:21.984Z,10.30
2023-02-21T04:33:56.923Z,11.23
2023-02-21T04:36:30.609Z,12.67
2023-02-21T04:38:58.559Z,11.43
2023-02-21T04:41:27.960Z,10.00
2023-02-21T04:43:55.920Z,8.90
2023-02-21T04:46:23.975Z,12.87
2023-02-21T04:48:53.826Z,17.20
2023-02-21T04:51:24.761Z,15.27
2023-02-21T04:53:55.334Z,12.57
2023-02-21T04:56:29.002Z,11.63
2023-02-21T04:58:57.575Z,11.10
2023-02-21T05:01:30.752Z,12.47
2023-02-21T05:03:59.110Z,18.20
2023-02-21T05:06:29.772Z,18.23
2023-02-21T05:08:58.356Z,11.17
2023-02-21T05:11:28.108Z,12.53
2023-02-21T05:13:56.136Z,16.70
2023-02-21T05:16:24.192Z,14.83
2023-02-21T05:18:52.235Z,11.33
2023-02-21T05:21:21.383Z,19.30
2023-02-21T05:23:56.582Z,19.13
2023-02-21T05:26:30.944Z,12.70
2023-02-21T05:28:59.448Z,17.30
2023-02-21T05:31:28.005Z,9.80
2023-02-21T05:33:56.176Z,12.03
2023-02-21T05:36:25.681Z,13.63
2023-02-21T05:38:56.268Z,18.63
2023-02-21T05:41:24.833Z,18.10
2023-02-21T05:43:54.616Z,18.50
2023-02-21T05:46:26.517Z,14.40
2023-02-21T05:48:57.523Z,10.53
2023-02-21T05:51:27.200Z,15.83
2023-02-21T05:53:55.691Z,11.40
2023-02-21T05:56:23.900Z,17.57
2023-02-21T05:58:53.259Z,14.57
2023-02-21T06:01:21.384Z,13.20
2023-02-21T06:03:49.380Z,15.50
2023-02-21T06:06:17.571Z,15.80
2023-02-21T06:08:48.360Z,18.93
2023-02-21T06:11:17.745Z,15.93
2023-02-21T06:13:45.808Z,15.20
2023-02-21T06:16:15.255Z,20.60
2023-02-21T06:18:43.249Z,13.57
2023-02-21T06:21:11.334Z,13.03
2023-02-21T06:23:39.317Z,20.00
2023-02-21T06:26:07.361Z,16.10
2023-02-21T06:28:35.936Z,13.10
2023-02-21T06:31:05.886Z,16.27
2023-02-21T06:33:35.498Z,9.10
2023-02-21T06:36:06.932Z,14.47
2023-02-21T06:38:35.597Z,11.63
2023-02-21T06:41:07.682Z,16.23
2023-02-21T06:43:36.600Z,13.03
2023-02-21T06:46:05.570Z,17.80
2023-02-21T06:48:35.201Z,16.80
2023-02-21T06:51:05.475Z,12.70
2023-02-21T06:53:33.437Z,15.50
2023-02-21T06:56:01.437Z,12.93
2023-02-21T06:58:29.415Z,12.23
2023-02-21T07:00:58.643Z,16.70
2023-02-21T07:03:27.609Z,15.50
2023-02-21T07:05:57.015Z,11.17
2023-02-21T07:08:25.849Z,12.20
2023-02-21T07:10:54.082Z,13.60
2023-02-21T07:13:22.634Z,18.87
2023-02-21T07:15:50.722Z,10.73
2023-02-21T07:18:18.787Z,23.70
2023-02-21T07:20:46.860Z,18.97
2023-02-21T07:23:16.224Z,21.70
2023-02-21T07:25:44.311Z,14.80
2023-02-21T07:28:12.419Z,23.43
2023-02-21T07:30:40.655Z,9.90
2023-02-21T07:33:08.682Z,10.80
2023-02-21T07:35:36.708Z,18.60
2023-02-21T07:38:04.737Z,12.90
2023-02-21T07:40:34.502Z,15.77
2023-02-21T07:43:02.931Z,12.70
2023-02-21T07:45:30.919Z,13.53
2023-02-21T07:47:58.862Z,13.97
2023-02-21T07:50:26.909Z,10.43
2023-02-21T07:52:56.616Z,13.20
2023-02-21T07:55:24.832Z,6.80
2023-02-21T07:57:54.210Z,9.60
2023-02-21T08:00:25.214Z,11.90
2023-02-21T08:02:54.272Z,13.90
2023-02-21T08:05:23.192Z,11.17
2023-02-21T08:07:51.580Z,16.60
2023-02-21T08:10:23.405Z,8.90
2023-02-21T08:12:53.146Z,9.47
2023-02-21T08:15:21.199Z,9.43
2023-02-21T08:17:49.977Z,15.70
2023-02-21T08:20:18.722Z,15.70
2023-02-21T08:22:46.998Z,13.33
2023-02-21T08:25:17.178Z,15.13
2023-02-21T08:27:46.646Z,17.20
2023-02-21T08:30:18.428Z,13.67
2023-02-21T08:32:48.181Z,13.23
2023-02-21T08:35:17.060Z,16.90
2023-02-21T08:37:46.329Z,16.73
2023-02-21T08:40:15.466Z,13.50
2023-02-21T08:42:43.483Z,16.43
2023-02-21T08:45:19.557Z,15.87
2023-02-21T08:47:47.924Z,17.50
2023-02-21T08:50:16.596Z,20.30
2023-02-21T08:52:46.900Z,16.87
2023-02-21T08:55:16.453Z,19.80
2023-02-21T08:57:44.600Z,16.63
2023-02-21T09:00:15.722Z,26.13
2023-02-21T09:02:46.065Z,17.43
2023-02-21T09:05:17.651Z,20.97
2023-02-21T09:07:48.666Z,18.70
2023-02-21T09:10:18.226Z,26.70
2023-02-21T09:12:46.337Z,21.70
2023-02-21T09:15:17.550Z,14.67
2023-02-21T09:17:47.236Z,14.60
2023-02-21T09:20:19.701Z,19.40
2023-02-21T09:22:48.464Z,16.47
2023-02-21T09:25:20.331Z,17.60
2023-02-21T09:27:48.627Z,18.57
2023-02-21T09:30:21.510Z,12.37
2023-02-21T09:32:51.255Z,13.40
2023-02-21T09:35:19.643Z,18.93
2023-02-21T09:37:48.441Z,15.10
2023-02-21T09:40:26.426Z,13.30
2023-02-21T09:42:57.383Z,15.10
2023-02-21T09:45:26.759Z,13.27
2023-02-21T09:47:58.286Z,20.87
2023-02-21T09:50:31.113Z,14.27
2023-02-21T09:53:00.195Z,18.90
2023-02-21T09:55:33.071Z,18.37
2023-02-21T09:58:01.206Z,18.47
2023-02-21T10:00:35.522Z,18.97
2023-02-21T10:03:24.196Z,15.70
2023-02-21T10:05:59.800Z,14.90
2023-02-21T10:08:37.209Z,17.50
2023-02-21T10:11:23.435Z,18.20
2023-02-21T10:13:59.755Z,14.20
2023-02-21T10:16:34.653Z,16.07
2023-02-21T10:19:15.516Z,16.60
2023-02-21T10:21:47.319Z,17.67
2023-02-21T10:24:18.400Z,24.77
2023-02-21T10:26:53.471Z,27.17
2023-02-21T10:29:26.443Z,15.00
2023-02-21T10:32:02.364Z,18.90
2023-02-21T10:34:34.383Z,13.83
2023-02-21T10:37:12.467Z,15.40
2023-02-21T10:39:47.655Z,16.97
2023-02-21T10:42:27.450Z,13.93
2023-02-21T10:44:56.844Z,11.03
2023-02-21T10:47:34.262Z,14.87
2023-02-21T10:50:08.943Z,12.10
2023-02-21T10:52:39.666Z,18.07
2023-02-21T10:55:31.283Z,13.17
2023-02-21T10:58:11.785Z,14.67
2023-02-21T11:00:47.909Z,12.60
2023-02-21T11:03:23.919Z,12.10
2023-02-21T11:05:57.632Z,16.40
2023-02-21T11:08:39.468Z,14.33
2023-02-21T11:11:08.469Z,18.13
2023-02-21T11:13:36.951Z,11.73
2023-02-21T11:16:13.193Z,17.57
2023-02-21T11:18:41.295Z,16.83
2023-02-21T11:21:17.849Z,14.03
2023-02-21T11:23:54.220Z,13.53
2023-02-21T11:26:24.302Z,12.50
2023-02-21T11:28:53.838Z,13.67
2023-02-21T11:31:30.038Z,13.77
2023-02-21T11:34:01.348Z,11.93
2023-02-21T11:36:34.005Z,17.70
2023-02-21T11:39:07.572Z,13.87
2023-02-21T11:41:47.376Z,14.77
2023-02-21T11:44:31.390Z,7.13
2023-02-21T11:47:10.288Z,8.90
2023-02-21T11:49:52.281Z,8.37
2023-02-21T11:52:27.245Z,13.07
2023-02-21T11:54:55.347Z,11.67
2023-02-21T11:57:32.132Z,13.40
2023-02-21T12:00:21.046Z,9.40
2023-02-21T12:03:42.643Z,16.90
2023-02-21T12:06:19.279Z,16.70
2023-02-21T12:08:52.899Z,16.73
2023-02-21T12:11:38.163Z,14.93
2023-02-21T12:14:21.001Z,14.50
2023-02-21T12:17:05.161Z,20.10
2023-02-21T12:19:53.236Z,18.30
2023-02-21T12:22:37.233Z,20.27
2023-02-21T12:25:19.791Z,16.57
2023-02-21T12:27:55.906Z,14.13
2023-02-21T12:30:45.004Z,13.10
2023-02-21T12:33:31.571Z,19.40
2023-02-21T12:36:42.053Z,19.07
2023-02-21T12:39:28.218Z,13.80
2023-02-21T12:42:26.476Z,11.57
2023-02-21T12:45:08.623Z,23.30
2023-02-21T12:47:46.055Z,18.53
2023-02-21T12:50:19.745Z,10.20
2023-02-21T12:53:02.818Z,14.60
2023-02-21T12:55:35.778Z,17.43
2023-02-21T12:58:18.359Z,12.40
2023-02-21T13:00:53.842Z,13.57
2023-02-21T13:03:38.284Z,22.83
2023-02-21T13:06:14.352Z,26.43
2023-02-21T13:08:55.159Z,19.03
2023-02-21T13:11:30.083Z,14.83
2023-02-21T13:14:00.620Z,14.17
2023-02-21T13:16:28.832Z,19.07
2023-02-21T13:19:02.157Z,12.00
2023-02-21T13:21:49.322Z,19.67
2023-02-21T13:24:39.654Z,15.07
2023-02-21T13:27:53.093Z,16.60
2023-02-21T13:30:29.079Z,17.83
2023-02-21T13:32:59.713Z,21.83
2023-02-21T13:35:32.930Z,18.17
2023-02-21T13:38:02.465Z,17.47
2023-02-21T13:40:37.728Z,24.70
2023-02-21T13:43:12.313Z,14.13
2023-02-21T13:45:41.748Z,17.50
2023-02-21T13:48:27.827Z,15.97
2023-02-21T13:50:58.061Z,19.43
2023-02-21T13:53:34.619Z,14.63
2023-02-21T13:56:42.872Z,15.70
2023-02-21T13:59:35.896Z,16.17
2023-02-21T14:02:25.065Z,19.20
2023-02-21T14:05:13.829Z,22.10
2023-02-21T14:08:01.832Z,14.07
2023-02-21T14:10:44.532Z,14.07
2023-02-21T14:13:33.680Z,20.03
2023-02-21T14:16:15.586Z,21.27
2023-02-21T14:18:50.532Z,18.97
2023-02-21T14:21:38.565Z,29.13
2023-02-21T14:24:15.881Z,13.60
2023-02-21T14:26:47.459Z,15.43
2023-02-21T14:29:30.197Z,18.50
2023-02-21T14:32:17.347Z,17.40
2023-02-21T14:34:57.262Z,13.40
2023-02-21T14:37:31.834Z,12.50
2023-02-21T14:40:02.554Z,15.27
2023-02-21T14:42:55.741Z,18.50
2023-02-21T14:45:37.168Z,20.30
2023-02-21T14:48:39.506Z,19.13
2023-02-21T14:51:52.361Z,16.30
2023-02-21T14:55:01.288Z,11.30
2023-02-21T14:58:07.620Z,14.43
2023-02-21T15:00:49.999Z,15.83
2023-02-21T15:03:23.294Z,13.30
2023-02-21T15:06:03.658Z,15.63
2023-02-21T15:08:43.456Z,12.13
2023-02-21T15:11:26.404Z,16.63
2023-02-21T15:14:24.046Z,13.53
2023-02-21T15:16:55.797Z,12.97
2023-02-21T15:19:29.250Z,19.63
2023-02-21T15:22:30.194Z,9.43
2023-02-21T15:25:24.775Z,14.93
2023-02-21T15:28:06.218Z,47.97
2023-02-21T15:30:41.306Z,56.07
2023-02-21T15:33:16.992Z,45.80
2023-02-21T15:35:50.735Z,33.10
2023-02-21T15:38:24.906Z,26.60
2023-02-21T15:40:58.372Z,30.60
2023-02-21T15:43:43.458Z,20.27
2023-02-21T15:46:27.305Z,22.13
2023-02-21T15:49:01.309Z,23.13
2023-02-21T15:51:33.446Z,23.87
2023-02-21T15:54:24.746Z,33.33
2023-02-21T15:57:09.537Z,22.00
2023-02-21T15:59:38.569Z,20.53
2023-02-21T16:02:19.188Z,16.10
2023-02-21T16:04:49.616Z,17.20
2023-02-21T16:07:23.195Z,23.07
2023-02-21T16:09:59.530Z,37.80
2023-02-21T16:12:37.425Z,21.77
2023-02-21T16:15:09.850Z,45.47
2023-02-21T16:17:41.333Z,84.83
2023-02-21T16:20:18.334Z,86.17
2023-02-21T16:23:08.015Z,41.90
2023-02-21T16:25:36.860Z,44.23
2023-02-21T16:28:13.990Z,59.67
2023-02-21T16:30:42.363Z,48.13
2023-02-21T16:33:14.384Z,30.50
2023-02-21T16:35:43.285Z,21.20
2023-02-21T16:38:15.496Z,21.90
2023-02-21T16:40:43.716Z,21.90
2023-02-21T16:43:20.057Z,27.50
2023-02-21T16:45:49.413Z,27.43
2023-02-21T16:48:21.692Z,13.40
2023-02-21T16:50:51.358Z,12.33
2023-02-21T16:53:21.097Z,10.70
2023-02-21T16:55:50.292Z,16.90
2023-02-21T16:58:27.866Z,13.33
2023-02-21T17:00:59.038Z,10.57
2023-02-21T17:03:28.410Z,13.97
2023-02-21T17:05:58.148Z,12.47
2023-02-21T17:08:27.578Z,9.93
2023-02-21T17:10:56.564Z,9.37
2023-02-21T17:13:26.022Z,10.60
2023-02-21T17:15:55.193Z,15.77
2023-02-21T17:18:24.304Z,10.20
2023-02-21T17:20:52.746Z,17.30
2023-02-21T17:23:20.823Z,20.33
2023-02-21T17:25:49.283Z,16.40
2023-02-21T17:28:17.761Z,27.30
2023-02-21T17:30:50.331Z,26.00
2023-02-21T17:33:21.511Z,23.67
2023-02-21T17:35:50.053Z,66.93
2023-02-21T17:38:18.308Z,29.17
2023-02-21T17:40:46.705Z,29.83
2023-02-21T17:43:17.416Z,25.93
2023-02-21T17:45:47.418Z,20.10
2023-02-21T17:48:17.302Z,23.87
2023-02-21T17:50:45.428Z,21.47
2023-02-21T17:53:13.491Z,29.33
2023-02-21T17:55:41.567Z,16.13
2023-02-21T17:58:10.613Z,12.93
2023-02-21T18:00:39.384Z,9.13
2023-02-21T18:03:09.489Z,19.03
2023-02-21T18:05:38.215Z,11.97
2023-02-21T18:08:06.706Z,17.87
2023-02-21T18:10:35.198Z,12.37
2023-02-21T18:13:03.407Z,15.57
2023-02-21T18:15:32.142Z,21.30
2023-02-21T18:18:06.991Z,15.87
2023-02-21T18:20:38.590Z,16.37
2023-02-21T18:23:07.405Z,22.33
2023-02-21T18:25:36.425Z,12.43
2023-02-21T18:28:05.743Z,18.07
2023-02-21T18:30:34.104Z,17.70
2023-02-21T18:33:02.672Z,23.47
2023-02-21T18:35:30.838Z,11.30
2023-02-21T18:38:00.326Z,23.63
2023-02-21T18:40:35.201Z,15.00
2023-02-21T18:43:03.332Z,16.00
2023-02-21T18:45:32.888Z,12.40
2023-02-21T18:48:02.337Z,15.13
2023-02-21T18:50:30.318Z,15.20
2023-02-21T18:53:02.066Z,9.60
2023-02-21T18:55:30.162Z,16.37
2023-02-21T18:57:58.192Z,14.80
2023-02-21T19:00:27.765Z,14.00
2023-02-21T19:02:56.307Z,18.70
2023-02-21T19:05:25.933Z,15.80
2023-02-21T19:07:54.564Z,14.07
2023-02-21T19:10:25.814Z,10.97
2023-02-21T19:12:53.880Z,18.17
2023-02-21T19:15:22.815Z,16.07
2023-02-21T19:17:50.797Z,16.47
2023-02-21T19:20:20.431Z,14.20
2023-02-21T19:22:48.706Z,19.97
2023-02-21T19:25:17.680Z,16.80
2023-02-21T19:27:47.167Z,12.57
2023-02-21T19:30:15.548Z,12.73
2023-02-21T19:32:43.545Z,17.23
2023-02-21T19:35:11.642Z,13.50
2023-02-21T19:37:39.618Z,12.10
2023-02-21T19:40:09.337Z,13.93
2023-02-21T19:42:37.319Z,12.60
2023-02-21T19:45:07.609Z,15.90
2023-02-21T19:47:40.342Z,13.53
2023-02-21T19:50:12.044Z,10.50
2023-02-21T19:52:41.315Z,10.17
2023-02-21T19:55:11.090Z,18.60
2023-02-21T19:57:39.528Z,15.50
2023-02-21T20:00:12.149Z,17.30
2023-02-21T20:02:40.860Z,14.07
2023-02-21T20:05:10.399Z,13.40
2023-02-21T20:07:38.960Z,11.30
2023-02-21T20:10:08.795Z,13.40
2023-02-21T20:12:37.169Z,15.60
2023-02-21T20:15:07.282Z,18.80
2023-02-21T20:17:39.302Z,15.83
2023-02-21T20:20:11.754Z,17.20
2023-02-21T20:22:40.189Z,15.60
2023-02-21T20:25:09.920Z,14.00
2023-02-21T20:27:39.294Z,16.87
2023-02-21T20:30:09.782Z,16.43
2023-02-21T20:32:40.365Z,20.53
2023-02-21T20:35:10.323Z,16.83
2023-02-21T20:37:38.798Z,18.63
2023-02-21T20:40:11.037Z,15.10
2023-02-21T20:42:39.621Z,11.80
2023-02-21T20:45:11.104Z,16.53
2023-02-21T20:47:42.894Z,14.37
2023-02-21T20:50:13.571Z,16.70
2023-02-21T20:52:43.967Z,12.50
2023-02-21T20:55:12.975Z,14.10
2023-02-21T20:57:41.095Z,16.17
2023-02-21T21:00:10.959Z,15.97
2023-02-21T21:02:40.635Z,13.53
2023-02-21T21:05:13.694Z,12.77
2023-02-21T21:07:42.425Z,12.83
2023-02-21T21:10:14.608Z,9.83
2023-02-21T21:12:44.385Z,14.73
2023-02-21T21:15:14.726Z,12.20
2023-02-21T21:17:44.871Z,15.47
2023-02-21T21:20:17.633Z,12.63
2023-02-21T21:22:46.931Z,12.87
2023-02-21T21:25:16.920Z,13.27
2023-02-21T21:27:45.800Z,23.33
2023-02-21T21:30:19.646Z,11.70
2023-02-21T21:32:49.667Z,13.90
2023-02-21T21:35:19.783Z,14.70
2023-02-21T21:37:49.074Z,13.33
2023-02-21T21:40:17.769Z,11.00
2023-02-21T21:42:49.438Z,9.37
2023-02-21T21:45:19.570Z,20.13
2023-02-21T21:47:50.966Z,11.00
2023-02-21T21:50:21.225Z,20.17
2023-02-21T21:52:53.278Z,13.27
2023-02-21T21:55:25.498Z,14.60
2023-02-21T21:57:54.827Z,13.60
2023-02-21T22:00:25.968Z,17.77
2023-02-21T22:02:58.482Z,19.47
2023-02-21T22:05:28.427Z,11.83
2023-02-21T22:07:57.625Z,24.83
2023-02-21T22:10:27.245Z,13.10
2023-02-21T22:12:59.934Z,16.90
2023-02-21T22:15:30.212Z,14.60
2023-02-21T22:18:03.846Z,13.20
2023-02-21T22:20:31.952Z,10.40
2023-02-21T22:23:00.211Z,12.10
2023-02-21T22:25:32.365Z,14.87
2023-02-21T22:28:04.376Z,14.10
2023-02-21T22:30:32.643Z,14.73
2023-02-21T22:33:02.072Z,14.73
2023-02-21T22:35:32.118Z,18.67
2023-02-21T22:38:02.930Z,17.53
2023-02-21T22:40:35.548Z,14.63
2023-02-21T22:43:08.310Z,22.00
2023-02-21T22:45:38.033Z,21.23
2023-02-21T22:48:10.007Z,15.40
2023-02-21T22:50:39.370Z,20.40
2023-02-21T22:53:09.528Z,16.60
2023-02-21T22:55:38.619Z,17.63
2023-02-21T22:58:10.178Z,20.03
2023-02-21T23:00:39.075Z,18.30
2023-02-21T23:03:13.615Z,29.60
2023-02-21T23:05:43.590Z,16.33
2023-02-21T23:08:13.859Z,20.73
2023-02-21T23:10:43.035Z,21.37
2023-02-21T23:13:14.988Z,14.50
2023-02-21T23:15:44.129Z,21.07
2023-02-21T23:18:20.221Z,20.53
2023-02-21T23:20:49.297Z,33.90
2023-02-21T23:23:17.246Z,24.33
2023-02-21T23:25:46.731Z,28.13
2023-02-21T23:28:17.245Z,23.00
2023-02-21T23:30:46.165Z,31.47
2023-02-21T23:33:18.403Z,31.03
2023-02-21T23:35:49.941Z,21.07
2023-02-21T23:38:22.547Z,27.03
2023-02-21T23:40:55.986Z,22.57
2023-02-21T23:43:29.167Z,22.97
2023-02-21T23:46:00.130Z,28.30
2023-02-21T23:48:32.593Z,23.40
2023-02-21T23:51:01.169Z,27.10
2023-02-21T23:53:31.768Z,24.07
2023-02-21T23:56:00.573Z,28.53
2023-02-21T23:58:33.040Z,27.60
